Aeroporto :
LOGIN :

Iscrizione | Disclaimer

   EN    FR    IT 

 










Sommario :    VFR   VFR Marginale   IFR   IFR Intensivo   IFR Molto Intensivo
Visibilità : 
Base nubi : 
>= 8 km
>= 3000ft
5 / 8 km
1000 / 3000 ft
1500m / 5 km
500 / 1000 ft
800 / 1500m
200 / 500 ft
< 800m
< 200 ft
Simboli :   Temporali  Nebbia  Neve Forte  Precipitazioni Forti  Vento > 20 kt
SIGMETs :   Varie  Temporali  Ghiacco  Turbolenza  Onda orograficha  Ceneri Vulcaniche






- Altitudine del aeroporto : 461 ft
- Codice IATA : WIE


ETOU - Wiesbaden Army

ULTIMO METAR :
  • 221156Z AUTO 28018G25KT 9999 FEW043 12/M01 A3008 RMK AO2 PK WND 28026/35 SLP192 70012 T01151013 10116 20024 58000 $

METARs OBSOLETI :
  • 221056Z AUTO 27018G25KT 9999 CLR 11/M00 A3008 RMK AO2 SLP191 T01111004 $
  • 220956Z AUTO 26013G17KT 9999 CLR 10/01 A3008 RMK AO2 SLP192 T00950007 $

TAF TAF ETOU
Valido dal 22 a 04 ore il 23 a 10 ore UTC


220400Z 2204/2310 26009KT 9999 FEW070 510003 QNH3002INS
BECMG 2211/2212 27015G20KT 9999 BKN030 510003 QNH3006INS
BECMG 2215/2216 27015G20KT 9999 BKN025 OVC040 620453 510004 QNH3007INS
BECMG 2218/2219 26009KT 9999 BKN025 OVC030 620453 QNH3009INS
BECMG 2301/2302 VRB06KT 9999 OVC013 QNH3015INS
BECMG 2303/2304 VRB06KT 8000 BR OVC014 QNH3027INS TX11/2211Z TN04/2204Z



MetMap, La meteo Aeronautica in un colpo d'occhio ! - Copyright ORBIFLY Dicembre 2007 - Disclaimer

ORBIFLY MET'MAP TEAM :

Programmazione e sviluppo : Alexandra Zaïnal
Concezione : Baudouin d'Aumeries
Aiuto per la programmazione : Marc-Olivier Méhu
Supporto tecnico e logistico : Manuel Goepfert
Aiuto per la traduzione : Arnaldo La Scala

Contatto : metmap@orbifly.com




FONTI E CREDITI :

   NOAA